createdAt,value
2023-01-03T00:01:44.968Z,33.83
2023-01-03T00:04:12.321Z,30.63
2023-01-03T00:06:42.659Z,30.43
2023-01-03T00:09:11.697Z,29.35
2023-01-03T00:11:59.321Z,31.63
2023-01-03T00:14:29.293Z,31.90
2023-01-03T00:16:59.432Z,26.83
2023-01-03T00:19:29.461Z,29.63
2023-01-03T00:21:56.639Z,31.65
2023-01-03T00:24:23.532Z,35.47
2023-01-03T00:26:50.067Z,33.60
2023-01-03T00:29:17.160Z,29.42
2023-01-03T00:31:43.712Z,30.13
2023-01-03T00:34:10.752Z,28.98
2023-01-03T00:36:38.296Z,30.02
2023-01-03T00:39:05.865Z,28.30
2023-01-03T00:41:32.845Z,30.40
2023-01-03T00:43:59.652Z,27.77
2023-01-03T00:46:26.401Z,32.53
2023-01-03T00:48:53.112Z,32.28
2023-01-03T00:51:26.098Z,31.20
2023-01-03T00:53:57.603Z,31.75
2023-01-03T00:56:26.856Z,28.37
2023-01-03T00:58:53.956Z,32.33
2023-01-03T01:01:27.709Z,31.85
2023-01-03T01:04:02.600Z,26.98
2023-01-03T01:06:32.221Z,28.27
2023-01-03T01:08:59.988Z,33.77
2023-01-03T01:11:27.343Z,29.13
2023-01-03T01:13:54.631Z,30.98
2023-01-03T01:16:25.042Z,27.67
2023-01-03T01:18:53.800Z,28.17
2023-01-03T01:21:24.736Z,32.13
2023-01-03T01:23:51.803Z,29.67
2023-01-03T01:26:24.292Z,32.95
2023-01-03T01:28:52.310Z,27.48
2023-01-03T01:31:21.509Z,32.38
2023-01-03T01:33:48.400Z,31.97
2023-01-03T01:36:29.608Z,31.02
2023-01-03T01:38:58.890Z,32.20
2023-01-03T01:41:45.035Z,29.27
2023-01-03T01:44:39.349Z,28.33
2023-01-03T01:47:22.508Z,27.00
2023-01-03T01:49:54.699Z,26.05
2023-01-03T01:52:24.138Z,33.15
2023-01-03T01:54:52.435Z,30.08
2023-01-03T01:57:22.621Z,35.15
2023-01-03T01:59:49.529Z,31.80
2023-01-03T02:02:20.308Z,28.98
2023-01-03T02:04:50.442Z,33.97
2023-01-03T02:07:19.687Z,32.00
2023-01-03T02:09:48.608Z,31.73
2023-01-03T02:12:56.722Z,32.87
2023-01-03T02:15:39.997Z,28.50
2023-01-03T02:18:06.467Z,32.13
2023-01-03T02:21:27.506Z,29.88
2023-01-03T02:24:12.832Z,27.88
2023-01-03T02:26:51.710Z,30.23
2023-01-03T02:29:22.210Z,28.88
2023-01-03T02:31:58.421Z,31.85
2023-01-03T02:34:29.405Z,31.70
2023-01-03T02:37:33.352Z,28.33
2023-01-03T02:40:26.304Z,25.70
2023-01-03T02:42:57.841Z,30.10
2023-01-03T02:45:46.977Z,25.05
2023-01-03T02:48:19.214Z,26.30
2023-01-03T02:50:49.140Z,28.38
2023-01-03T02:53:24.635Z,28.93
2023-01-03T02:55:53.294Z,29.67
2023-01-03T02:58:26.569Z,32.50
2023-01-03T03:00:56.075Z,28.88
2023-01-03T03:03:28.746Z,27.85
2023-01-03T03:06:23.093Z,27.07
2023-01-03T03:08:50.301Z,29.27
2023-01-03T03:11:35.628Z,30.08
2023-01-03T03:14:14.109Z,28.08
2023-01-03T03:16:50.412Z,30.35
2023-01-03T03:19:47.743Z,29.93
2023-01-03T03:23:00.236Z,33.13
2023-01-03T03:25:33.594Z,40.97
2023-01-03T03:28:23.605Z,37.75
2023-01-03T03:30:54.380Z,79.78
2023-01-03T03:33:23.706Z,97.87
2023-01-03T03:36:08.514Z,93.97
2023-01-03T03:38:38.424Z,122.15
2023-01-03T03:41:39.075Z,183.38
2023-01-03T03:44:51.445Z,107.45
2023-01-03T03:47:45.720Z,121.13
2023-01-03T03:50:23.012Z,186.50
2023-01-03T03:52:55.432Z,133.05
2023-01-03T03:55:26.090Z,243.80
2023-01-03T03:58:06.735Z,162.82
2023-01-03T04:00:38.309Z,256.60
2023-01-03T04:03:07.857Z,211.52
2023-01-03T04:05:39.428Z,151.45
2023-01-03T04:08:06.346Z,237.70
2023-01-03T04:10:37.628Z,174.75
2023-01-03T04:13:04.727Z,271.70
2023-01-03T04:15:31.434Z,317.55
2023-01-03T04:17:57.954Z,241.77
2023-01-03T04:20:24.480Z,289.02
2023-01-03T04:22:51.083Z,211.95
2023-01-03T04:25:17.632Z,193.80
2023-01-03T04:27:44.136Z,150.05
2023-01-03T04:30:11.537Z,230.73
2023-01-03T04:32:38.357Z,270.27
2023-01-03T04:35:05.257Z,213.18
2023-01-03T04:37:31.888Z,199.13
2023-01-03T04:39:58.474Z,183.55
2023-01-03T04:42:43.519Z,216.38
2023-01-03T04:45:10.939Z,244.65
2023-01-03T04:47:37.462Z,163.52
2023-01-03T04:50:04.296Z,159.37
2023-01-03T04:52:30.811Z,79.28
2023-01-03T04:54:57.318Z,112.03
2023-01-03T04:57:23.839Z,101.20
2023-01-03T04:59:50.345Z,79.63
2023-01-03T05:02:17.380Z,82.13
2023-01-03T05:04:44.132Z,83.78
2023-01-03T05:07:10.701Z,70.15
2023-01-03T05:09:37.220Z,76.80
2023-01-03T05:12:03.873Z,82.55
2023-01-03T05:14:30.416Z,74.97
2023-01-03T05:16:57.000Z,74.82
2023-01-03T05:19:23.692Z,71.88
2023-01-03T05:22:08.746Z,73.82
2023-01-03T05:24:53.587Z,68.80
2023-01-03T05:27:20.070Z,69.30
2023-01-03T05:29:49.699Z,66.47
2023-01-03T05:32:16.369Z,65.07
2023-01-03T05:34:42.943Z,68.80
2023-01-03T05:37:09.497Z,54.70
2023-01-03T05:39:36.061Z,59.17
2023-01-03T05:42:02.748Z,56.17
2023-01-03T05:44:32.859Z,53.88
2023-01-03T05:47:01.751Z,54.05
2023-01-03T05:49:28.332Z,51.97
2023-01-03T05:51:54.891Z,53.10
2023-01-03T05:54:21.604Z,57.95
2023-01-03T05:56:48.474Z,54.47
2023-01-03T05:59:15.954Z,52.28
2023-01-03T06:01:42.741Z,50.45
2023-01-03T06:04:09.354Z,55.67
2023-01-03T06:06:36.002Z,54.00
2023-01-03T06:09:02.608Z,50.53
2023-01-03T06:11:29.241Z,51.85
2023-01-03T06:13:55.804Z,51.08
2023-01-03T06:16:41.723Z,49.40
2023-01-03T06:19:08.629Z,50.65
2023-01-03T06:21:36.014Z,50.15
2023-01-03T06:24:02.587Z,60.03
2023-01-03T06:26:29.519Z,51.25
2023-01-03T06:28:56.369Z,50.10
2023-01-03T06:31:23.035Z,53.22
2023-01-03T06:33:49.994Z,53.80
2023-01-03T06:36:19.276Z,52.88
2023-01-03T06:38:45.892Z,58.25
2023-01-03T06:41:13.500Z,56.30
2023-01-03T06:43:41.078Z,59.88
2023-01-03T06:46:26.238Z,56.50
2023-01-03T06:49:11.481Z,54.38
2023-01-03T06:51:56.572Z,51.90
2023-01-03T06:54:31.957Z,57.07
2023-01-03T06:56:58.899Z,57.80
2023-01-03T06:59:25.686Z,59.97
2023-01-03T07:01:53.495Z,55.42
2023-01-03T07:04:21.376Z,56.78
2023-01-03T07:06:48.249Z,53.77
2023-01-03T07:09:14.996Z,59.42
2023-01-03T07:11:41.631Z,57.55
2023-01-03T07:14:10.760Z,67.70
2023-01-03T07:16:42.926Z,64.32
2023-01-03T07:19:14.170Z,65.90
2023-01-03T07:21:40.864Z,57.90
2023-01-03T07:24:08.803Z,88.82
2023-01-03T07:26:35.739Z,74.10
2023-01-03T07:29:04.805Z,85.63
2023-01-03T07:31:32.669Z,70.90
2023-01-03T07:34:00.196Z,81.47
2023-01-03T07:36:27.463Z,76.28
2023-01-03T07:38:55.623Z,68.43
2023-01-03T07:41:22.384Z,76.28
2023-01-03T07:43:49.826Z,59.60
2023-01-03T07:46:20.562Z,81.70
2023-01-03T07:48:57.010Z,69.05
2023-01-03T07:51:23.516Z,70.45
2023-01-03T07:53:51.570Z,64.05
2023-01-03T07:56:20.083Z,73.07
2023-01-03T07:58:48.732Z,63.63
2023-01-03T08:01:17.975Z,57.53
2023-01-03T08:03:44.820Z,55.35
2023-01-03T08:06:16.975Z,51.17
2023-01-03T08:08:44.991Z,48.00
2023-01-03T08:11:33.738Z,46.65
2023-01-03T08:14:00.239Z,44.63
2023-01-03T08:16:26.882Z,47.00
2023-01-03T08:18:54.691Z,41.88
2023-01-03T08:21:21.293Z,44.53
2023-01-03T08:23:48.798Z,40.03
2023-01-03T08:26:16.856Z,38.97
2023-01-03T08:28:44.323Z,34.97
2023-01-03T08:31:34.402Z,37.25
2023-01-03T08:34:05.462Z,34.73
2023-01-03T08:36:40.921Z,36.40
2023-01-03T08:39:13.692Z,31.55
2023-01-03T08:41:45.487Z,33.40
2023-01-03T08:44:13.075Z,31.10
2023-01-03T08:46:43.709Z,31.13
2023-01-03T08:49:11.984Z,31.05
2023-01-03T08:51:39.597Z,33.50
2023-01-03T08:54:06.174Z,31.40
2023-01-03T08:56:34.661Z,32.53
2023-01-03T08:59:01.654Z,26.00
2023-01-03T09:01:28.402Z,25.25
2023-01-03T09:03:55.230Z,29.48
2023-01-03T09:06:21.790Z,30.20
2023-01-03T09:08:48.423Z,29.42
2023-01-03T09:11:15.111Z,27.77
2023-01-03T09:13:41.931Z,25.33
2023-01-03T09:16:10.742Z,28.08
2023-01-03T09:18:38.397Z,27.27
2023-01-03T09:21:05.715Z,25.10
2023-01-03T09:23:34.021Z,26.83
2023-01-03T09:26:00.835Z,28.25
2023-01-03T09:28:27.498Z,31.02
2023-01-03T09:30:54.536Z,27.05
2023-01-03T09:33:21.580Z,26.35
2023-01-03T09:35:48.112Z,26.33
2023-01-03T09:38:14.935Z,31.70
2023-01-03T09:40:45.169Z,31.48
2023-01-03T09:43:25.230Z,26.42
2023-01-03T09:45:58.260Z,30.00
2023-01-03T09:48:35.846Z,26.63
2023-01-03T09:51:22.656Z,28.02
2023-01-03T09:54:07.437Z,27.00
2023-01-03T09:56:52.222Z,27.17
2023-01-03T09:59:37.132Z,27.55
2023-01-03T10:02:31.651Z,26.60
2023-01-03T10:05:10.458Z,28.25
2023-01-03T10:08:16.632Z,25.45
2023-01-03T10:11:12.330Z,27.73
2023-01-03T10:14:16.447Z,28.38
2023-01-03T10:17:09.347Z,29.40
2023-01-03T10:19:59.921Z,28.13
2023-01-03T10:22:30.761Z,29.83
2023-01-03T10:25:15.491Z,28.13
2023-01-03T10:27:54.603Z,30.15
2023-01-03T10:30:29.845Z,29.83
2023-01-03T10:33:18.884Z,28.25
2023-01-03T10:35:45.427Z,28.00
2023-01-03T10:38:15.565Z,34.35
2023-01-03T10:40:46.872Z,24.00
2023-01-03T10:43:25.712Z,32.43
2023-01-03T10:46:01.449Z,34.38
2023-01-03T10:51:41.927Z,33.17
2023-01-03T10:54:26.595Z,26.73
2023-01-03T10:56:53.237Z,31.63
2023-01-03T10:59:28.786Z,31.23
2023-01-03T11:02:09.097Z,33.58
2023-01-03T11:04:36.321Z,35.55
2023-01-03T11:07:08.680Z,36.10
2023-01-03T11:09:53.149Z,35.57
2023-01-03T11:12:39.992Z,36.58
2023-01-03T11:15:18.593Z,31.23
2023-01-03T11:18:00.236Z,35.95
2023-01-03T11:20:49.842Z,36.17
2023-01-03T11:23:26.477Z,28.53
2023-01-03T11:26:03.979Z,36.33
2023-01-03T11:29:08.079Z,30.45
2023-01-03T11:31:59.176Z,27.17
2023-01-03T11:35:11.614Z,27.48
2023-01-03T11:37:49.310Z,27.53
2023-01-03T11:40:41.558Z,27.85
2023-01-03T11:43:21.101Z,29.42
2023-01-03T11:46:07.648Z,28.08
2023-01-03T11:48:50.139Z,29.40
2023-01-03T11:51:52.915Z,28.20
2023-01-03T11:54:41.285Z,26.90
2023-01-03T11:57:26.372Z,26.52
2023-01-03T12:00:14.158Z,23.98
2023-01-03T12:03:16.989Z,25.45
2023-01-03T12:05:48.269Z,27.27
2023-01-03T12:08:33.282Z,27.20
2023-01-03T12:11:05.823Z,28.45
2023-01-03T12:14:05.062Z,28.10
2023-01-03T12:16:37.321Z,29.00
2023-01-03T12:19:31.241Z,28.13
2023-01-03T12:22:12.565Z,21.30
2023-01-03T12:24:46.269Z,18.90
2023-01-03T12:27:23.577Z,20.55
2023-01-03T12:30:11.132Z,23.77
2023-01-03T12:32:55.322Z,20.67
2023-01-03T12:35:30.557Z,18.70
2023-01-03T12:37:58.194Z,24.00
2023-01-03T12:40:43.481Z,22.25
2023-01-03T12:43:16.606Z,21.42
2023-01-03T12:46:00.228Z,22.43
2023-01-03T12:48:50.266Z,19.58
2023-01-03T12:51:20.752Z,16.90
2023-01-03T12:53:57.767Z,17.95
2023-01-03T12:56:58.718Z,19.48
2023-01-03T12:59:31.211Z,18.70
2023-01-03T13:02:06.967Z,18.77
2023-01-03T13:04:40.089Z,19.05
2023-01-03T13:07:29.012Z,16.73
2023-01-03T13:10:04.220Z,19.85
2023-01-03T13:12:35.026Z,14.67
2023-01-03T13:15:27.415Z,15.70
2023-01-03T13:18:18.652Z,17.67
2023-01-03T13:20:49.992Z,17.77
2023-01-03T13:23:33.728Z,17.50
2023-01-03T13:26:06.174Z,19.13
2023-01-03T13:28:39.995Z,20.58
2023-01-03T13:31:18.435Z,17.17
2023-01-03T13:34:10.864Z,17.13
2023-01-03T13:37:06.620Z,21.85
2023-01-03T13:39:47.815Z,14.13
2023-01-03T13:42:32.963Z,13.68
2023-01-03T13:45:38.335Z,11.85
2023-01-03T13:48:18.129Z,12.27
2023-01-03T13:51:05.584Z,15.18
2023-01-03T13:53:51.698Z,13.13
2023-01-03T13:56:33.221Z,12.63
2023-01-03T13:59:07.691Z,13.18
2023-01-03T14:02:12.033Z,12.05
2023-01-03T14:05:00.050Z,11.30
2023-01-03T14:07:56.932Z,11.50
2023-01-03T14:10:51.472Z,12.10
2023-01-03T14:13:40.239Z,11.70
2023-01-03T14:16:24.757Z,12.20
2023-01-03T14:19:02.355Z,12.20
2023-01-03T14:21:40.001Z,12.43
2023-01-03T14:24:13.516Z,11.05
2023-01-03T14:26:40.056Z,12.18
2023-01-03T14:29:09.792Z,12.48
2023-01-03T14:31:44.188Z,11.50
2023-01-03T14:34:31.722Z,10.37
2023-01-03T14:37:11.104Z,10.02
2023-01-03T14:42:05.777Z,12.20
2023-01-03T14:44:33.728Z,9.40
2023-01-03T14:47:06.227Z,8.75
2023-01-03T14:49:44.824Z,8.43
2023-01-03T14:52:18.936Z,9.43
2023-01-03T14:54:49.436Z,10.87
2023-01-03T14:57:25.787Z,12.82
2023-01-03T14:59:54.156Z,11.43
2023-01-03T15:02:21.372Z,8.57
2023-01-03T15:04:56.622Z,9.30
2023-01-03T15:07:38.348Z,8.37
2023-01-03T15:10:11.153Z,12.68
2023-01-03T15:12:46.944Z,10.10
2023-01-03T15:15:28.163Z,8.20
2023-01-03T15:18:02.761Z,8.35
2023-01-03T15:20:39.216Z,11.37
2023-01-03T15:23:06.342Z,9.50
2023-01-03T15:25:38.912Z,9.95
2023-01-03T15:28:36.467Z,8.43
2023-01-03T15:31:15.293Z,10.60
2023-01-03T15:33:59.073Z,7.57
2023-01-03T15:36:28.765Z,9.60
2023-01-03T15:38:55.329Z,9.50
2023-01-03T15:42:06.451Z,7.90
2023-01-03T15:44:38.984Z,9.07
2023-01-03T15:47:08.641Z,9.33
2023-01-03T15:49:45.594Z,9.63
2023-01-03T15:52:16.324Z,10.52
2023-01-03T15:54:44.775Z,11.48
2023-01-03T15:57:17.703Z,8.35
2023-01-03T15:59:44.336Z,13.13
2023-01-03T16:02:16.959Z,7.38
2023-01-03T16:04:45.449Z,10.32
2023-01-03T16:07:13.053Z,11.15
2023-01-03T16:09:40.172Z,15.43
2023-01-03T16:12:10.289Z,12.27
2023-01-03T16:14:39.915Z,10.82
2023-01-03T16:17:08.347Z,13.15
2023-01-03T16:19:35.016Z,11.38
2023-01-03T16:24:50.935Z,12.03
2023-01-03T16:27:23.304Z,11.20
2023-01-03T16:29:49.785Z,14.05
2023-01-03T16:32:22.770Z,12.88
2023-01-03T16:34:50.249Z,12.88
2023-01-03T16:37:16.748Z,11.37
2023-01-03T16:39:47.903Z,10.70
2023-01-03T16:42:15.430Z,11.43
2023-01-03T16:44:44.472Z,8.88
2023-01-03T16:47:24.858Z,12.95
2023-01-03T16:50:04.554Z,10.60
2023-01-03T16:52:37.683Z,21.42
2023-01-03T16:55:24.970Z,13.15
2023-01-03T16:57:54.441Z,13.48
2023-01-03T17:00:26.737Z,8.80
2023-01-03T17:02:55.964Z,12.03
2023-01-03T17:05:23.261Z,14.43
2023-01-03T17:07:52.828Z,11.55
2023-01-03T17:10:27.117Z,8.38
2023-01-03T17:12:54.516Z,14.20
2023-01-03T17:15:21.091Z,9.90
2023-01-03T17:17:47.553Z,10.90
2023-01-03T17:20:19.049Z,11.70
2023-01-03T17:22:50.445Z,14.15
2023-01-03T17:25:17.218Z,10.32
2023-01-03T17:27:48.990Z,7.73
2023-01-03T17:30:20.643Z,12.48
2023-01-03T17:32:47.269Z,14.68
2023-01-03T17:35:17.594Z,8.85
2023-01-03T17:38:23.175Z,11.32
2023-01-03T17:40:34.195Z,11.37
2023-01-03T17:43:01.856Z,9.40
2023-01-03T17:45:46.978Z,11.27
2023-01-03T17:48:32.733Z,15.10
2023-01-03T17:50:59.319Z,9.77
2023-01-03T17:53:26.086Z,10.33
2023-01-03T17:55:53.017Z,11.77
2023-01-03T17:58:31.753Z,14.32
2023-01-03T18:00:58.946Z,11.43
2023-01-03T18:03:25.543Z,11.23
2023-01-03T18:05:52.775Z,13.27
2023-01-03T18:08:22.271Z,15.52
2023-01-03T18:10:50.102Z,11.98
2023-01-03T18:13:28.555Z,12.15
2023-01-03T18:15:56.195Z,11.77
2023-01-03T18:18:24.789Z,9.83
2023-01-03T18:20:52.393Z,7.93
2023-01-03T18:23:25.271Z,9.43
2023-01-03T18:25:52.447Z,12.23
2023-01-03T18:28:25.526Z,11.45
2023-01-03T18:30:53.406Z,10.10
2023-01-03T18:33:19.978Z,9.40
2023-01-03T18:35:46.797Z,11.63
2023-01-03T18:38:49.105Z,16.38
2023-01-03T18:41:21.198Z,10.73
2023-01-03T18:43:47.725Z,8.30
2023-01-03T18:46:15.903Z,11.02
2023-01-03T18:48:42.821Z,11.95
2023-01-03T18:51:15.467Z,20.50
2023-01-03T18:53:45.401Z,11.68
2023-01-03T18:56:31.284Z,9.53
2023-01-03T18:59:02.426Z,11.15
2023-01-03T19:01:30.195Z,11.10
2023-01-03T19:03:57.569Z,11.32
2023-01-03T19:06:31.437Z,9.57
2023-01-03T19:09:00.604Z,9.53
2023-01-03T19:11:33.565Z,12.13
2023-01-03T19:14:02.510Z,9.88
2023-01-03T19:16:33.962Z,7.05
2023-01-03T19:19:01.079Z,12.25
2023-01-03T19:21:33.418Z,9.40
2023-01-03T19:24:24.302Z,9.55
2023-01-03T19:26:54.586Z,10.85
2023-01-03T19:29:36.781Z,9.20
2023-01-03T19:32:15.370Z,9.50
2023-01-03T19:34:41.895Z,8.70
2023-01-03T19:37:09.941Z,8.57
2023-01-03T19:39:37.819Z,10.13
2023-01-03T19:42:25.485Z,6.82
2023-01-03T19:44:53.143Z,8.45
2023-01-03T19:47:20.577Z,8.13
2023-01-03T19:49:48.101Z,9.15
2023-01-03T19:52:16.131Z,9.20
2023-01-03T19:54:45.230Z,7.57
2023-01-03T19:57:23.961Z,10.60
2023-01-03T19:59:56.521Z,8.07
2023-01-03T20:02:26.355Z,10.88
2023-01-03T20:04:53.224Z,9.82
2023-01-03T20:07:19.858Z,7.68
2023-01-03T20:09:49.412Z,7.93
2023-01-03T20:12:21.395Z,6.43
2023-01-03T20:14:51.408Z,13.32
2023-01-03T20:17:26.139Z,8.40
2023-01-03T20:19:53.510Z,14.70
2023-01-03T20:25:26.633Z,6.43
2023-01-03T20:27:53.914Z,8.73
2023-01-03T20:30:25.031Z,8.57
2023-01-03T20:32:53.968Z,10.27
2023-01-03T20:38:15.305Z,9.00
2023-01-03T20:40:41.853Z,9.18
2023-01-03T20:43:15.786Z,9.10
2023-01-03T20:45:42.461Z,12.98
2023-01-03T20:48:18.009Z,13.00
2023-01-03T20:50:49.933Z,7.57
2023-01-03T20:53:19.824Z,9.68
2023-01-03T20:55:47.343Z,10.68
2023-01-03T20:58:15.380Z,11.10
2023-01-03T21:00:42.202Z,9.90
2023-01-03T21:03:09.035Z,6.80
2023-01-03T21:05:39.599Z,8.68
2023-01-03T21:08:27.662Z,8.13
2023-01-03T21:10:56.677Z,10.13
2023-01-03T21:13:23.188Z,12.50
2023-01-03T21:15:50.106Z,8.73
2023-01-03T21:18:19.046Z,11.85
2023-01-03T21:20:52.454Z,10.50
2023-01-03T21:23:24.230Z,9.48
2023-01-03T21:25:50.724Z,10.13
2023-01-03T21:28:17.213Z,9.47
2023-01-03T21:30:43.824Z,8.88
2023-01-03T21:33:17.025Z,6.78
2023-01-03T21:35:44.006Z,12.98
2023-01-03T21:38:10.928Z,8.02
2023-01-03T21:40:37.600Z,10.37
2023-01-03T21:43:05.456Z,11.98
2023-01-03T21:45:36.682Z,10.50
2023-01-03T21:48:14.052Z,7.60
2023-01-03T21:50:43.180Z,6.13
2023-01-03T21:53:14.407Z,8.13
2023-01-03T21:55:41.307Z,8.50
2023-01-03T21:58:07.837Z,8.40
2023-01-03T22:00:34.470Z,8.27
2023-01-03T22:03:19.762Z,10.63
2023-01-03T22:05:46.429Z,15.33
2023-01-03T22:08:12.916Z,8.70
2023-01-03T22:10:42.069Z,8.98
2023-01-03T22:13:10.192Z,8.32
2023-01-03T22:15:38.603Z,7.50
2023-01-03T22:18:07.665Z,8.83
2023-01-03T22:20:38.499Z,12.30
2023-01-03T22:23:06.615Z,6.45
2023-01-03T22:25:33.123Z,7.20
2023-01-03T22:27:59.791Z,13.80
2023-01-03T22:30:26.740Z,10.53
2023-01-03T22:32:56.943Z,10.80
2023-01-03T22:35:24.226Z,10.45
2023-01-03T22:37:50.764Z,6.72
2023-01-03T22:40:17.663Z,10.25
2023-01-03T22:42:44.392Z,9.57
2023-01-03T22:45:11.057Z,5.70
2023-01-03T22:47:38.168Z,8.20
2023-01-03T22:50:06.479Z,7.10
2023-01-03T22:52:33.389Z,7.75
2023-01-03T22:54:59.939Z,7.93
2023-01-03T22:57:26.628Z,8.13
2023-01-03T22:59:53.331Z,10.20
2023-01-03T23:02:24.534Z,9.25
2023-01-03T23:04:54.755Z,10.02
2023-01-03T23:07:21.379Z,7.27
2023-01-03T23:09:48.381Z,8.30
2023-01-03T23:12:33.584Z,11.38
2023-01-03T23:15:00.176Z,10.10
2023-01-03T23:17:45.399Z,7.40
2023-01-03T23:20:12.355Z,7.07
2023-01-03T23:22:38.948Z,9.15
2023-01-03T23:25:05.930Z,6.45
2023-01-03T23:27:32.424Z,6.95
2023-01-03T23:29:59.023Z,7.60
2023-01-03T23:32:25.628Z,9.07
2023-01-03T23:34:52.156Z,5.65
2023-01-03T23:37:18.657Z,6.40
2023-01-03T23:39:45.162Z,7.13
2023-01-03T23:42:11.909Z,8.73
2023-01-03T23:44:38.393Z,6.67
2023-01-03T23:47:11.117Z,8.77
2023-01-03T23:49:38.696Z,6.07
2023-01-03T23:52:05.204Z,8.32
2023-01-03T23:54:32.350Z,9.13
2023-01-03T23:56:58.877Z,7.80
2023-01-03T23:59:25.384Z,9.10
